createdAt,value
2023-05-09T00:02:30.356Z,99233.45
2023-05-09T00:05:33.640Z,99231.58
2023-05-09T00:08:36.770Z,99228.67
2023-05-09T00:11:39.814Z,99223.89
2023-05-09T00:14:45.451Z,99222.39
2023-05-09T00:17:48.673Z,99221.38
2023-05-09T00:20:51.696Z,99221.80
2023-05-09T00:23:54.757Z,99222.25
2023-05-09T00:26:57.784Z,99217.20
2023-05-09T00:30:00.938Z,99216.80
2023-05-09T00:33:04.225Z,99215.09
2023-05-09T00:36:07.941Z,99212.99
2023-05-09T00:39:10.982Z,99216.27
2023-05-09T00:42:14.697Z,99206.08
2023-05-09T00:45:17.965Z,99203.88
2023-05-09T00:48:21.389Z,99202.55
2023-05-09T00:51:25.830Z,99195.08
2023-05-09T00:54:28.920Z,99197.36
2023-05-09T00:57:31.903Z,99190.05
2023-05-09T01:00:34.951Z,99189.44
2023-05-09T01:03:41.263Z,99186.38
2023-05-09T01:07:38.217Z,99185.98
2023-05-09T01:10:51.007Z,99182.31
2023-05-09T01:14:01.354Z,99188.65
2023-05-09T01:17:24.792Z,99182.73
2023-05-09T01:20:35.788Z,99187.10
2023-05-09T01:23:44.793Z,99184.73
2023-05-09T01:27:19.082Z,99184.13
2023-05-09T01:30:24.851Z,99179.90
2023-05-09T01:33:29.998Z,99179.69
2023-05-09T01:36:36.388Z,99173.40
2023-05-09T01:39:42.181Z,99173.02
2023-05-09T01:42:53.218Z,99174.51
2023-05-09T01:45:57.693Z,99174.73
2023-05-09T01:49:03.046Z,99173.07
2023-05-09T01:52:08.963Z,99173.09
2023-05-09T01:55:13.289Z,99166.23
2023-05-09T01:58:18.309Z,99160.09
2023-05-09T02:01:22.921Z,99162.72
2023-05-09T02:04:27.729Z,99161.29
2023-05-09T02:07:32.259Z,99160.48
2023-05-09T02:10:35.824Z,99165.02
2023-05-09T02:13:41.133Z,99162.75
2023-05-09T02:16:44.561Z,99156.90
2023-05-09T02:19:47.600Z,99153.55
2023-05-09T02:22:51.048Z,99157.67
2023-05-09T02:25:55.052Z,99157.23
2023-05-09T02:28:59.215Z,99157.05
2023-05-09T02:32:04.377Z,99157.73
2023-05-09T02:35:09.761Z,99153.64
2023-05-09T02:38:13.684Z,99151.53
2023-05-09T02:41:17.334Z,99146.63
2023-05-09T02:44:20.440Z,99145.83
2023-05-09T02:47:24.407Z,99144.39
2023-05-09T02:50:27.687Z,99144.54
2023-05-09T02:53:31.207Z,99143.39
2023-05-09T02:56:34.179Z,99147.54
2023-05-09T02:59:37.171Z,99146.90
2023-05-09T03:02:40.368Z,99145.21
2023-05-09T03:05:46.955Z,99150.27
2023-05-09T03:08:50.229Z,99150.36
2023-05-09T03:11:55.206Z,99151.56
2023-05-09T03:14:58.202Z,99146.83
2023-05-09T03:18:01.434Z,99150.08
2023-05-09T03:21:05.649Z,99146.00
2023-05-09T03:24:10.630Z,99144.19
2023-05-09T03:27:13.678Z,99145.15
2023-05-09T03:30:16.709Z,99145.88
2023-05-09T03:33:21.182Z,99144.52
2023-05-09T03:36:24.879Z,99142.02
2023-05-09T03:39:28.119Z,99143.23
2023-05-09T03:42:32.672Z,99144.25
2023-05-09T03:45:38.346Z,99144.38
2023-05-09T03:48:42.833Z,99142.73
2023-05-09T03:51:46.131Z,99149.06
2023-05-09T03:54:51.068Z,99150.17
2023-05-09T03:57:54.992Z,99149.02
2023-05-09T04:00:58.296Z,99150.38
2023-05-09T04:04:01.703Z,99149.13
2023-05-09T04:07:06.135Z,99149.39
2023-05-09T04:10:09.712Z,99150.90
2023-05-09T04:13:13.125Z,99155.34
2023-05-09T04:16:16.318Z,99152.34
2023-05-09T04:19:20.231Z,99152.73
2023-05-09T04:22:23.275Z,99150.45
2023-05-09T04:25:26.959Z,99150.70
2023-05-09T04:28:30.360Z,99145.85
2023-05-09T04:31:33.820Z,99144.54
2023-05-09T04:34:37.388Z,99145.98
2023-05-09T04:37:45.731Z,99143.69
2023-05-09T04:40:49.067Z,99141.27
2023-05-09T04:43:52.476Z,99142.03
2023-05-09T04:46:58.085Z,99138.48
2023-05-09T04:50:01.300Z,99136.15
2023-05-09T04:53:04.337Z,99136.31
2023-05-09T04:56:07.507Z,99140.98
2023-05-09T04:59:11.362Z,99141.88
2023-05-09T05:02:14.361Z,99140.64
2023-05-09T05:05:24.598Z,99141.30
2023-05-09T05:08:29.317Z,99141.98
2023-05-09T05:11:32.352Z,99140.89
2023-05-09T05:14:35.500Z,99137.79
2023-05-09T05:17:38.971Z,99135.73
2023-05-09T05:20:42.916Z,99136.21
2023-05-09T05:23:46.038Z,99136.95
2023-05-09T05:26:49.585Z,99134.42
2023-05-09T05:29:52.645Z,99132.92
2023-05-09T05:32:55.906Z,99131.55
2023-05-09T05:35:59.483Z,99134.79
2023-05-09T05:39:02.477Z,99125.13
2023-05-09T05:42:05.592Z,99130.45
2023-05-09T05:45:09.250Z,99128.55
2023-05-09T05:48:14.654Z,99126.14
2023-05-09T05:51:17.923Z,99122.08
2023-05-09T05:54:21.706Z,99116.40
2023-05-09T05:57:24.942Z,99114.34
2023-05-09T06:00:28.628Z,99114.13
2023-05-09T06:03:36.213Z,99110.39
2023-05-09T06:06:42.194Z,99109.77
2023-05-09T06:09:45.219Z,99106.92
2023-05-09T06:12:48.289Z,99109.10
2023-05-09T06:15:51.458Z,99107.09
2023-05-09T06:18:55.899Z,99106.33
2023-05-09T06:21:59.200Z,99106.61
2023-05-09T06:25:02.721Z,99106.84
2023-05-09T06:28:06.032Z,99106.88
2023-05-09T06:31:09.028Z,99108.38
2023-05-09T06:34:12.239Z,99106.27
2023-05-09T06:37:15.268Z,99100.55
2023-05-09T06:40:18.398Z,99096.73
2023-05-09T06:43:21.501Z,99090.38
2023-05-09T06:46:24.709Z,99086.61
2023-05-09T06:49:27.682Z,99085.14
2023-05-09T06:52:30.732Z,99086.36
2023-05-09T06:55:33.775Z,99080.95
2023-05-09T06:58:38.000Z,99080.50
2023-05-09T07:01:41.282Z,99075.08
2023-05-09T07:04:44.465Z,99067.20
2023-05-09T07:07:47.607Z,99065.55
2023-05-09T07:10:50.970Z,99067.13
2023-05-09T07:13:54.071Z,99062.54
2023-05-09T07:17:09.880Z,99058.63
2023-05-09T07:20:17.275Z,99060.78
2023-05-09T07:23:20.532Z,99059.55
2023-05-09T07:26:24.940Z,99056.73
2023-05-09T07:29:30.788Z,99041.70
2023-05-09T07:32:33.854Z,99038.80
2023-05-09T07:35:36.897Z,99040.64
2023-05-09T07:38:40.678Z,99034.66
2023-05-09T07:41:44.230Z,99033.70
2023-05-09T07:44:47.279Z,99033.31
2023-05-09T07:47:50.377Z,99035.79
2023-05-09T07:50:59.133Z,99034.34
2023-05-09T07:54:04.708Z,99032.12
2023-05-09T07:57:08.104Z,99035.66
2023-05-09T08:00:11.958Z,99033.81
2023-05-09T08:03:19.849Z,99044.13
2023-05-09T08:06:23.591Z,99032.89
2023-05-09T08:09:26.710Z,99024.96
2023-05-09T08:12:29.793Z,99033.14
2023-05-09T08:15:32.993Z,99023.59
2023-05-09T08:18:36.101Z,99015.87
2023-05-09T08:21:39.347Z,99016.70
2023-05-09T08:24:42.760Z,99014.41
2023-05-09T08:27:45.800Z,99010.52
2023-05-09T08:30:49.056Z,99015.65
2023-05-09T08:33:52.607Z,99011.67
2023-05-09T08:36:55.778Z,99014.98
2023-05-09T08:39:58.873Z,99019.52
2023-05-09T08:43:03.714Z,99018.98
2023-05-09T08:46:09.394Z,99005.45
2023-05-09T08:49:12.690Z,99005.23
2023-05-09T08:52:16.336Z,98999.06
2023-05-09T08:55:19.709Z,98994.85
2023-05-09T08:58:23.129Z,98991.36
2023-05-09T09:01:27.614Z,98989.59
2023-05-09T09:04:30.850Z,98989.15
2023-05-09T09:07:38.670Z,98994.98
2023-05-09T09:10:47.615Z,98987.55
2023-05-09T09:13:54.445Z,98990.83
2023-05-09T09:16:58.717Z,98994.56
2023-05-09T09:20:05.694Z,98988.46
2023-05-09T09:23:12.607Z,98991.08
2023-05-09T09:26:16.483Z,98983.27
2023-05-09T09:29:23.737Z,98981.71
2023-05-09T09:32:34.182Z,98979.90
2023-05-09T09:35:43.475Z,98982.72
2023-05-09T09:38:46.941Z,98975.58
2023-05-09T09:41:50.820Z,98971.89
2023-05-09T09:45:02.567Z,98969.58
2023-05-09T09:48:07.726Z,98964.67
2023-05-09T09:51:11.773Z,98960.16
2023-05-09T09:54:15.153Z,98959.32
2023-05-09T09:57:35.650Z,98969.69
2023-05-09T10:00:38.909Z,98950.57
2023-05-09T10:03:45.145Z,98949.45
2023-05-09T10:06:59.236Z,98948.42
2023-05-09T10:10:06.136Z,98950.68
2023-05-09T10:13:12.188Z,98951.98
2023-05-09T10:16:15.858Z,98939.56
2023-05-09T10:19:21.147Z,98939.66
2023-05-09T10:22:24.992Z,98937.75
2023-05-09T10:25:44.709Z,98936.53
2023-05-09T10:28:49.854Z,98943.52
2023-05-09T10:31:59.187Z,98930.88
2023-05-09T10:35:06.955Z,98926.55
2023-05-09T10:38:12.609Z,98925.29
2023-05-09T10:41:17.167Z,98925.39
2023-05-09T10:44:23.340Z,98930.66
2023-05-09T10:47:29.050Z,98923.45
2023-05-09T10:50:32.164Z,98911.79
2023-05-09T10:53:48.804Z,98915.98
2023-05-09T10:56:51.804Z,98912.88
2023-05-09T10:59:56.683Z,98916.64
2023-05-09T11:03:07.905Z,98911.66
2023-05-09T11:06:43.998Z,98897.38
2023-05-09T11:09:52.255Z,98892.21
2023-05-09T11:13:00.464Z,98899.02
2023-05-09T11:16:05.392Z,98899.83
2023-05-09T11:19:08.598Z,98890.20
2023-05-09T11:22:21.625Z,98895.91
2023-05-09T11:25:29.317Z,98891.25
2023-05-09T11:28:37.658Z,98887.75
2023-05-09T11:32:07.834Z,98880.58
2023-05-09T11:35:19.621Z,98873.52
2023-05-09T11:38:23.146Z,98867.69
2023-05-09T11:41:27.311Z,98862.67
2023-05-09T11:44:33.476Z,98863.13
2023-05-09T11:47:37.929Z,98857.48
2023-05-09T11:50:41.725Z,98852.39
2023-05-09T11:53:47.119Z,98850.42
2023-05-09T11:56:50.399Z,98844.26
2023-05-09T11:59:56.705Z,98838.69
2023-05-09T12:03:00.294Z,98833.83
2023-05-09T12:06:07.013Z,98831.17
2023-05-09T12:09:10.624Z,98829.16
2023-05-09T12:12:14.434Z,98829.73
2023-05-09T12:16:01.067Z,98825.21
2023-05-09T12:19:04.624Z,98817.67
2023-05-09T12:22:06.670Z,98811.98
2023-05-09T12:25:09.829Z,98811.27
2023-05-09T12:28:15.501Z,98803.17
2023-05-09T12:31:18.301Z,98805.31
2023-05-09T12:34:20.682Z,98813.43
2023-05-09T12:37:22.891Z,98807.04
2023-05-09T12:40:24.901Z,98808.20
2023-05-09T12:43:29.682Z,98803.58
2023-05-09T12:46:31.790Z,98792.77
2023-05-09T12:49:36.256Z,98786.65
2023-05-09T12:52:54.098Z,98779.94
2023-05-09T12:56:05.012Z,98783.49
2023-05-09T12:59:10.483Z,98781.53
2023-05-09T13:02:13.037Z,98780.67
2023-05-09T13:05:19.864Z,98774.00
2023-05-09T13:08:21.633Z,98773.30
2023-05-09T13:11:24.024Z,98764.01
2023-05-09T13:14:26.408Z,98753.82
2023-05-09T13:17:30.245Z,98752.18
2023-05-09T13:20:32.056Z,98755.17
2023-05-09T13:23:33.889Z,98750.10
2023-05-09T13:26:35.603Z,98750.65
2023-05-09T13:29:37.421Z,98743.17
2023-05-09T13:32:39.340Z,98740.25
2023-05-09T13:35:41.102Z,98741.54
2023-05-09T13:38:44.943Z,98735.09
2023-05-09T13:41:48.035Z,98734.38
2023-05-09T13:44:49.966Z,98728.80
2023-05-09T13:47:51.867Z,98731.14
2023-05-09T13:50:53.711Z,98730.45
2023-05-09T13:53:55.560Z,98725.83
2023-05-09T13:56:57.282Z,98723.29
2023-05-09T13:59:59.072Z,98724.03
2023-05-09T14:03:03.692Z,98722.46
2023-05-09T14:06:05.961Z,98716.88
2023-05-09T14:09:08.513Z,98712.43
2023-05-09T14:12:10.343Z,98706.84
2023-05-09T14:15:12.836Z,98708.95
2023-05-09T14:18:18.446Z,98704.91
2023-05-09T14:21:22.001Z,98704.66
2023-05-09T14:24:23.869Z,98705.95
2023-05-09T14:27:25.607Z,98697.60
2023-05-09T14:30:27.615Z,98692.96
2023-05-09T14:33:29.423Z,98696.10
2023-05-09T14:36:31.926Z,98687.02
2023-05-09T14:39:33.731Z,98680.60
2023-05-09T14:42:36.284Z,98685.96
2023-05-09T14:45:38.806Z,98686.45
2023-05-09T14:48:40.726Z,98688.09
2023-05-09T14:51:42.481Z,98681.65
2023-05-09T14:54:44.161Z,98668.89
2023-05-09T14:57:46.195Z,98674.20
2023-05-09T15:00:48.822Z,98668.70
2023-05-09T15:03:50.566Z,98654.17
2023-05-09T15:06:52.627Z,98647.95
2023-05-09T15:09:54.458Z,98661.20
2023-05-09T15:12:56.193Z,98656.87
2023-05-09T15:15:57.968Z,98649.74
2023-05-09T15:18:59.897Z,98645.14
2023-05-09T15:22:03.425Z,98641.55
2023-05-09T15:25:06.273Z,98633.91
2023-05-09T15:28:08.152Z,98631.89
2023-05-09T15:31:09.888Z,98626.94
2023-05-09T15:34:11.644Z,98621.73
2023-05-09T15:37:13.403Z,98621.11
2023-05-09T15:40:15.571Z,98622.17
2023-05-09T15:43:17.920Z,98620.41
2023-05-09T15:46:20.072Z,98615.61
2023-05-09T15:49:21.866Z,98614.86
2023-05-09T15:52:24.490Z,98615.37
2023-05-09T15:55:28.524Z,98614.10
2023-05-09T15:58:30.893Z,98608.95
2023-05-09T16:01:34.633Z,98605.48
2023-05-09T16:04:37.954Z,98608.77
2023-05-09T16:07:43.870Z,98602.17
2023-05-09T16:10:48.407Z,98599.45
2023-05-09T16:13:50.268Z,98593.04
2023-05-09T16:16:53.242Z,98593.55
2023-05-09T16:19:55.061Z,98587.98
2023-05-09T16:22:56.859Z,98578.46
2023-05-09T16:26:01.970Z,98577.31
2023-05-09T16:29:05.960Z,98581.22
2023-05-09T16:32:08.740Z,98580.55
2023-05-09T16:35:10.706Z,98575.85
2023-05-09T16:38:15.458Z,98567.17
2023-05-09T16:41:18.542Z,98570.08
2023-05-09T16:44:24.431Z,98568.08
2023-05-09T16:47:26.347Z,98567.25
2023-05-09T16:50:28.330Z,98562.91
2023-05-09T16:53:30.122Z,98556.34
2023-05-09T16:56:31.907Z,98555.13
2023-05-09T16:59:33.642Z,98550.52
2023-05-09T17:02:36.551Z,98546.70
2023-05-09T17:05:38.344Z,98544.20
2023-05-09T17:08:40.151Z,98539.95
2023-05-09T17:11:41.868Z,98544.27
2023-05-09T17:14:44.815Z,98539.77
2023-05-09T17:17:46.849Z,98539.49
2023-05-09T17:20:49.030Z,98536.60
2023-05-09T17:23:53.261Z,98537.35
2023-05-09T17:26:56.036Z,98537.40
2023-05-09T17:29:57.991Z,98533.33
2023-05-09T17:33:00.228Z,98532.59
2023-05-09T17:36:06.466Z,98534.29
2023-05-09T17:39:08.476Z,98535.61
2023-05-09T17:42:12.167Z,98532.95
2023-05-09T17:45:14.335Z,98534.89
2023-05-09T17:48:16.164Z,98538.70
2023-05-09T17:51:18.031Z,98538.04
2023-05-09T17:54:23.203Z,98537.58
2023-05-09T17:57:25.627Z,98537.31
2023-05-09T18:00:30.426Z,98536.39
2023-05-09T18:03:33.438Z,98536.52
2023-05-09T18:06:35.865Z,98533.09
2023-05-09T18:09:37.736Z,98532.42
2023-05-09T18:12:41.072Z,98531.44
2023-05-09T18:15:45.636Z,98532.36
2023-05-09T18:18:47.866Z,98532.16
2023-05-09T18:21:50.173Z,98529.36
2023-05-09T18:24:52.668Z,98530.11
2023-05-09T18:27:56.072Z,98530.95
2023-05-09T18:30:59.770Z,98533.04
2023-05-09T18:34:02.012Z,98531.45
2023-05-09T18:37:03.999Z,98529.11
2023-05-09T18:40:06.478Z,98534.34
2023-05-09T18:43:08.542Z,98533.91
2023-05-09T18:46:10.343Z,98538.77
2023-05-09T18:49:12.362Z,98541.86
2023-05-09T18:52:14.716Z,98546.09
2023-05-09T18:55:19.121Z,98548.02
2023-05-09T18:58:20.889Z,98545.98
2023-05-09T19:01:23.633Z,98540.34
2023-05-09T19:04:27.214Z,98537.67
2023-05-09T19:07:29.046Z,98536.69
2023-05-09T19:10:31.012Z,98530.80
2023-05-09T19:13:37.879Z,98530.84
2023-05-09T19:16:39.720Z,98530.23
2023-05-09T19:19:41.553Z,98531.60
2023-05-09T19:22:50.805Z,98533.30
2023-05-09T19:25:53.835Z,98529.21
2023-05-09T19:28:55.638Z,98528.36
2023-05-09T19:31:57.646Z,98529.17
2023-05-09T19:34:59.290Z,98523.67
2023-05-09T19:38:01.011Z,98522.82
2023-05-09T19:41:02.799Z,98520.06
2023-05-09T19:44:06.393Z,98521.41
2023-05-09T19:47:08.425Z,98516.54
2023-05-09T19:50:10.434Z,98515.15
2023-05-09T19:53:12.217Z,98516.11
2023-05-09T19:56:13.897Z,98513.92
2023-05-09T19:59:15.548Z,98520.80
2023-05-09T20:02:17.236Z,98520.13
2023-05-09T20:05:19.094Z,98520.61
2023-05-09T20:08:20.927Z,98520.38
2023-05-09T20:11:22.620Z,98517.64
2023-05-09T20:14:24.441Z,98516.01
2023-05-09T20:17:26.285Z,98514.91
2023-05-09T20:20:28.578Z,98513.20
2023-05-09T20:23:30.589Z,98511.48
2023-05-09T20:26:32.445Z,98508.52
2023-05-09T20:29:34.177Z,98504.95
2023-05-09T20:32:35.952Z,98502.91
2023-05-09T20:35:39.125Z,98502.21
2023-05-09T20:38:40.855Z,98502.62
2023-05-09T20:41:44.245Z,98501.36
2023-05-09T20:44:46.974Z,98505.80
2023-05-09T20:47:49.078Z,98505.10
2023-05-09T20:50:50.801Z,98503.36
2023-05-09T20:53:52.526Z,98499.36
2023-05-09T20:56:54.396Z,98500.15
2023-05-09T20:59:56.181Z,98496.45
2023-05-09T21:02:58.837Z,98497.23
2023-05-09T21:06:00.725Z,98494.49
2023-05-09T21:09:03.779Z,98490.02
2023-05-09T21:12:06.079Z,98488.53
2023-05-09T21:15:08.422Z,98492.73
2023-05-09T21:18:10.148Z,98488.57
2023-05-09T21:21:11.886Z,98488.42
2023-05-09T21:24:13.793Z,98485.83
2023-05-09T21:27:15.475Z,98485.54
2023-05-09T21:30:17.505Z,98484.67
2023-05-09T21:33:20.200Z,98483.89
2023-05-09T21:36:21.878Z,98482.27
2023-05-09T21:39:24.238Z,98482.11
2023-05-09T21:42:25.996Z,98479.60
2023-05-09T21:45:27.827Z,98476.61
2023-05-09T21:48:29.602Z,98477.64
2023-05-09T21:51:32.782Z,98478.37
2023-05-09T21:54:34.536Z,98476.02
2023-05-09T21:57:36.277Z,98476.98
2023-05-09T22:00:38.041Z,98478.11
2023-05-09T22:03:39.778Z,98478.28
2023-05-09T22:06:42.069Z,98476.09
2023-05-09T22:09:43.737Z,98475.94
2023-05-09T22:12:45.430Z,98474.78
2023-05-09T22:15:47.138Z,98476.76
2023-05-09T22:18:48.856Z,98474.57
2023-05-09T22:21:50.480Z,98475.05
2023-05-09T22:24:52.598Z,98473.33
2023-05-09T22:27:55.179Z,98468.37
2023-05-09T22:30:56.817Z,98469.09
2023-05-09T22:33:58.478Z,98461.61
2023-05-09T22:37:00.206Z,98460.52
2023-05-09T22:40:01.926Z,98458.95
2023-05-09T22:43:03.634Z,98455.58
2023-05-09T22:46:05.371Z,98454.21
2023-05-09T22:49:07.050Z,98451.62
2023-05-09T22:52:09.289Z,98452.82
2023-05-09T22:55:10.988Z,98448.73
2023-05-09T22:58:12.932Z,98451.58
2023-05-09T23:01:15.049Z,98453.55
2023-05-09T23:04:17.091Z,98455.61
2023-05-09T23:07:18.750Z,98449.33
2023-05-09T23:10:20.607Z,98450.90
2023-05-09T23:13:22.324Z,98448.23
2023-05-09T23:16:24.100Z,98450.05
2023-05-09T23:19:26.266Z,98445.33
2023-05-09T23:22:28.071Z,98441.09
2023-05-09T23:25:29.769Z,98443.77
2023-05-09T23:28:31.474Z,98441.64
2023-05-09T23:31:33.209Z,98441.73
2023-05-09T23:34:36.022Z,98440.80
2023-05-09T23:37:37.715Z,98440.51
2023-05-09T23:40:40.019Z,98439.40
2023-05-09T23:43:41.926Z,98439.17
2023-05-09T23:46:43.671Z,98436.13
2023-05-09T23:49:45.338Z,98437.86
2023-05-09T23:52:48.656Z,98434.64
2023-05-09T23:55:50.577Z,98430.33
2023-05-09T23:58:52.248Z,98427.48
